Time;durP1;ratioP1;P1;durP2;ratioP2;P2;SDS_P1;SDS_P2;PMS_P1;PMS_P2;Temp;Humidity;BMP_temperature;BMP_pressure;BME280_temperature;BME280_humidity;BME280_pressure;Samples;Min_cycle;Max_cycle;Signal;HPM_P1;HPM_P2
2024/01/31 00:01:26;;;;;;;11.73;5.72;;;;;;;;;;4966123;28;20035;-77
2024/01/31 00:03:51;;;;;;;11.77;6.75;;;;;;;;;;4961251;28;20094;-77
2024/01/31 00:06:25;;;;;;;16.30;6.22;;;;;;;;;;4966748;28;20034;-78
2024/01/31 00:08:52;;;;;;;11.50;5.93;;;;;;;;;;4977766;28;20034;-78
2024/01/31 00:11:18;;;;;;;14.60;6.00;;;;;;;;;;4968159;28;20038;-77
2024/01/31 00:13:47;;;;;;;12.05;6.10;;;;;;;;;;4976455;28;20026;-78
2024/01/31 00:16:13;;;;;;;13.05;6.00;;;;;;;;;;4979846;28;20038;-78
2024/01/31 00:18:42;;;;;;;13.52;5.80;;;;;;;;;;4965773;28;20118;-78
2024/01/31 00:21:08;;;;;;;14.27;6.57;;;;;;;;;;4983334;28;20078;-78
2024/01/31 00:23:33;;;;;;;12.98;6.10;;;;;;;;;;4990405;28;20069;-78
2024/01/31 00:26:06;;;;;;;12.73;7.03;;;;;;;;;;4979417;28;20111;-77
2024/01/31 00:28:36;;;;;;;13.32;6.57;;;;;;;;;;4963293;29;20028;-78
2024/01/31 00:31:10;;;;;;;17.40;6.97;;;;;;;;;;4978829;28;20030;-78
2024/01/31 00:33:35;;;;;;;19.17;9.00;;;;;;;;;;4994316;28;20080;-78
2024/01/31 00:36:11;;;;;;;14.25;7.43;;;;;;;;;;4988256;28;20043;-78
2024/01/31 00:38:36;;;;;;;18.30;7.30;;;;;;;;;;4978547;28;20598;-78
2024/01/31 00:41:07;;;;;;;16.98;6.53;;;;;;;;;;4984802;28;20027;-78
2024/01/31 00:43:33;;;;;;;14.70;7.20;;;;;;;;;;4963822;28;20059;-78
2024/01/31 00:45:58;;;;;;;15.13;6.85;;;;;;;;;;4961652;28;20042;-77
2024/01/31 00:48:24;;;;;;;14.35;7.15;;;;;;;;;;4951203;28;20481;-77
2024/01/31 00:50:49;;;;;;;12.35;6.57;;;;;;;;;;4973676;28;20099;-79
2024/01/31 00:53:15;;;;;;;16.42;6.78;;;;;;;;;;4958626;28;20427;-79
2024/01/31 00:56:05;;;;;;;13.70;6.70;;;;;;;;;;4942033;29;20100;-77
2024/01/31 00:58:34;;;;;;;11.60;7.03;;;;;;;;;;4971324;28;20049;-77
2024/01/31 01:01:00;;;;;;;13.38;7.45;;;;;;;;;;4988301;28;20431;-77
2024/01/31 01:03:25;;;;;;;14.63;7.07;;;;;;;;;;4971653;28;20173;-77
2024/01/31 01:05:54;;;;;;;15.45;7.47;;;;;;;;;;4954476;28;20074;-78
2024/01/31 01:08:21;;;;;;;15.63;7.60;;;;;;;;;;4985236;28;20474;-78
2024/01/31 01:10:47;;;;;;;14.05;7.70;;;;;;;;;;4965419;28;20049;-78
2024/01/31 01:13:13;;;;;;;14.27;7.60;;;;;;;;;;4981711;28;20030;-77
2024/01/31 01:15:41;;;;;;;17.65;7.63;;;;;;;;;;4964724;28;20070;-79
2024/01/31 01:18:06;;;;;;;15.45;8.18;;;;;;;;;;4948577;28;20042;-76
2024/01/31 01:20:32;;;;;;;14.77;7.00;;;;;;;;;;4963162;28;20119;-79
2024/01/31 01:22:57;;;;;;;15.82;7.50;;;;;;;;;;4979191;28;20031;-77
2024/01/31 01:25:23;;;;;;;13.10;7.72;;;;;;;;;;4978330;28;20450;-78
2024/01/31 01:27:51;;;;;;;15.75;8.32;;;;;;;;;;4944592;28;20039;-78
2024/01/31 01:30:20;;;;;;;18.77;8.25;;;;;;;;;;4959958;28;20122;-78
2024/01/31 01:32:46;;;;;;;21.02;8.55;;;;;;;;;;4936521;28;20034;-79
2024/01/31 01:35:13;;;;;;;14.65;8.27;;;;;;;;;;4948050;29;20031;-78
2024/01/31 01:37:39;;;;;;;13.88;7.95;;;;;;;;;;4931880;28;20066;-79
2024/01/31 01:40:05;;;;;;;14.80;8.32;;;;;;;;;;4962439;28;20502;-79
2024/01/31 01:42:30;;;;;;;15.93;8.73;;;;;;;;;;4937965;28;20502;-78
2024/01/31 01:44:56;;;;;;;17.00;8.45;;;;;;;;;;4961765;28;20031;-78
2024/01/31 01:47:22;;;;;;;21.08;8.82;;;;;;;;;;4958371;29;20042;-78
2024/01/31 01:49:48;;;;;;;15.13;8.43;;;;;;;;;;4946776;28;20406;-77
2024/01/31 01:52:14;;;;;;;15.02;8.10;;;;;;;;;;4961744;28;20031;-77
2024/01/31 01:54:39;;;;;;;15.48;8.95;;;;;;;;;;4977349;28;20062;-77
2024/01/31 01:57:05;;;;;;;17.60;8.77;;;;;;;;;;4962226;28;20037;-78
2024/01/31 01:59:32;;;;;;;16.38;8.75;;;;;;;;;;4962400;28;20030;-77
2024/01/31 02:01:59;;;;;;;15.43;8.73;;;;;;;;;;4963272;28;20042;-78
2024/01/31 02:04:24;;;;;;;17.15;8.40;;;;;;;;;;4963170;28;20561;-78
2024/01/31 02:06:50;;;;;;;16.60;8.35;;;;;;;;;;4962687;28;20053;-78
2024/01/31 02:09:16;;;;;;;18.60;8.18;;;;;;;;;;4969248;28;20027;-78
2024/01/31 02:11:42;;;;;;;15.43;8.13;;;;;;;;;;4976291;28;20036;-79
2024/01/31 02:14:08;;;;;;;16.55;8.10;;;;;;;;;;4957762;28;20438;-77
2024/01/31 02:16:34;;;;;;;15.88;8.30;;;;;;;;;;4944558;28;20031;-78
2024/01/31 02:19:00;;;;;;;15.48;8.38;;;;;;;;;;4965007;28;20039;-77
2024/01/31 02:21:27;;;;;;;16.98;8.65;;;;;;;;;;4986010;28;20042;-77
2024/01/31 02:23:53;;;;;;;14.75;8.10;;;;;;;;;;4951987;28;20045;-78
2024/01/31 02:26:26;;;;;;;14.30;7.45;;;;;;;;;;4947903;29;20058;-77
2024/01/31 02:28:52;;;;;;;15.98;7.55;;;;;;;;;;4973684;28;20490;-77
2024/01/31 02:31:23;;;;;;;12.18;7.25;;;;;;;;;;4975267;28;20031;-78
2024/01/31 02:33:52;;;;;;;12.32;6.95;;;;;;;;;;4978566;28;20047;-77
2024/01/31 02:36:18;;;;;;;11.52;6.72;;;;;;;;;;4979274;28;20114;-77
2024/01/31 02:38:44;;;;;;;13.73;6.72;;;;;;;;;;4979756;28;20062;-77
2024/01/31 02:41:10;;;;;;;12.93;7.13;;;;;;;;;;4965751;28;20041;-77
2024/01/31 02:43:37;;;;;;;14.88;6.97;;;;;;;;;;4961557;28;20149;-77
2024/01/31 02:46:03;;;;;;;13.05;6.22;;;;;;;;;;4960143;28;20054;-77
2024/01/31 02:48:28;;;;;;;12.80;7.25;;;;;;;;;;4975689;28;20110;-79
2024/01/31 02:51:00;;;;;;;13.07;5.97;;;;;;;;;;4940720;29;20027;-77
2024/01/31 02:53:27;;;;;;;14.43;7.03;;;;;;;;;;4974917;28;20417;-77
2024/01/31 02:55:57;;;;;;;20.67;8.00;;;;;;;;;;4944178;28;20119;-79
2024/01/31 02:58:23;;;;;;;11.57;6.32;;;;;;;;;;4978945;28;20034;-78
2024/01/31 03:00:51;;;;;;;15.02;6.28;;;;;;;;;;4977667;28;20579;-78
2024/01/31 03:03:20;;;;;;;12.60;5.90;;;;;;;;;;4978108;28;20070;-78
2024/01/31 03:05:47;;;;;;;11.70;6.15;;;;;;;;;;4959204;28;20415;-77
2024/01/31 03:08:12;;;;;;;11.85;6.68;;;;;;;;;;4943525;29;20039;-77
2024/01/31 03:10:43;;;;;;;12.88;5.68;;;;;;;;;;4944375;28;20058;-78
2024/01/31 03:13:10;;;;;;;9.98;6.07;;;;;;;;;;4972728;28;20057;-79
2024/01/31 03:15:36;;;;;;;11.18;5.82;;;;;;;;;;4997014;28;20014;-78
2024/01/31 03:18:01;;;;;;;15.30;6.78;;;;;;;;;;4999279;28;20038;-78
2024/01/31 03:20:27;;;;;;;13.10;6.47;;;;;;;;;;4983184;28;20026;-78
2024/01/31 03:22:53;;;;;;;13.32;6.40;;;;;;;;;;4983278;28;20026;-77
2024/01/31 03:25:18;;;;;;;10.93;6.70;;;;;;;;;;4999898;28;20021;-77
2024/01/31 03:27:44;;;;;;;11.18;6.57;;;;;;;;;;4997232;28;20107;-78
2024/01/31 03:30:09;;;;;;;11.75;6.20;;;;;;;;;;4988459;28;20038;-78
2024/01/31 03:32:35;;;;;;;11.95;6.13;;;;;;;;;;4947786;29;20027;-77
2024/01/31 03:35:01;;;;;;;11.80;6.03;;;;;;;;;;4960834;28;20066;-78
2024/01/31 03:37:26;;;;;;;11.68;6.45;;;;;;;;;;4977449;28;20109;-77
2024/01/31 03:39:57;;;;;;;15.75;5.80;;;;;;;;;;4946865;28;20042;-77
2024/01/31 03:42:24;;;;;;;10.55;6.22;;;;;;;;;;4977339;28;20027;-77
2024/01/31 03:44:52;;;;;;;12.43;6.22;;;;;;;;;;4976458;28;20101;-77
2024/01/31 03:47:18;;;;;;;13.38;6.32;;;;;;;;;;4976436;28;20057;-78
2024/01/31 03:49:45;;;;;;;11.93;6.45;;;;;;;;;;4976660;28;20046;-77
2024/01/31 03:52:11;;;;;;;11.65;6.88;;;;;;;;;;4944874;28;20023;-78
2024/01/31 03:54:37;;;;;;;11.80;6.15;;;;;;;;;;4963048;28;20079;-79
2024/01/31 03:57:02;;;;;;;12.65;6.90;;;;;;;;;;4945884;28;20058;-78
2024/01/31 03:59:28;;;;;;;12.90;7.03;;;;;;;;;;4978116;28;20081;-78
2024/01/31 04:01:55;;;;;;;18.67;7.80;;;;;;;;;;4960336;28;20129;-78
2024/01/31 04:04:20;;;;;;;16.88;7.90;;;;;;;;;;4977364;28;20022;-77
2024/01/31 04:06:46;;;;;;;16.38;7.70;;;;;;;;;;4976472;28;20034;-78
2024/01/31 04:09:12;;;;;;;21.60;8.05;;;;;;;;;;4978067;28;20043;-78
2024/01/31 04:11:38;;;;;;;16.52;8.10;;;;;;;;;;4977884;28;20057;-78
2024/01/31 04:14:03;;;;;;;14.77;7.82;;;;;;;;;;4977152;28;20019;-77
2024/01/31 04:16:32;;;;;;;14.38;8.18;;;;;;;;;;4961442;28;20089;-77
2024/01/31 04:18:59;;;;;;;13.27;7.22;;;;;;;;;;4944235;28;20138;-78
2024/01/31 04:21:25;;;;;;;16.77;7.40;;;;;;;;;;4976721;28;20050;-77
2024/01/31 04:23:52;;;;;;;15.82;7.43;;;;;;;;;;4975272;28;20027;-77
2024/01/31 04:26:23;;;;;;;16.92;7.45;;;;;;;;;;4974509;28;20023;-77
2024/01/31 04:28:53;;;;;;;9.90;5.28;;;;;;;;;;4973978;28;20413;-78
2024/01/31 04:31:23;;;;;;;13.55;7.10;;;;;;;;;;4974054;28;20480;-77
2024/01/31 04:33:52;;;;;;;15.75;7.60;;;;;;;;;;4973022;28;20425;-78
2024/01/31 04:36:17;;;;;;;12.38;7.00;;;;;;;;;;4937744;29;20089;-77
2024/01/31 04:38:43;;;;;;;14.10;8.00;;;;;;;;;;4964377;28;20026;-78
2024/01/31 04:41:11;;;;;;;16.42;8.18;;;;;;;;;;4973820;28;20062;-79
2024/01/31 04:43:37;;;;;;;14.45;6.90;;;;;;;;;;4975940;28;20050;-78
2024/01/31 04:46:03;;;;;;;14.63;7.13;;;;;;;;;;4973898;28;20023;-78
2024/01/31 04:48:33;;;;;;;17.98;7.80;;;;;;;;;;4973628;28;20109;-78
2024/01/31 04:51:02;;;;;;;13.77;7.57;;;;;;;;;;4973758;28;20478;-78
2024/01/31 04:53:28;;;;;;;12.35;6.60;;;;;;;;;;4955915;28;20035;-78
2024/01/31 04:56:06;;;;;;;14.05;7.10;;;;;;;;;;4958352;28;20035;-78
2024/01/31 04:58:34;;;;;;;14.60;7.35;;;;;;;;;;4973604;28;20031;-77
2024/01/31 05:00:59;;;;;;;14.25;7.18;;;;;;;;;;4955435;28;20031;-77
2024/01/31 05:03:26;;;;;;;12.68;7.15;;;;;;;;;;4955315;28;20042;-78
2024/01/31 05:05:55;;;;;;;14.70;8.02;;;;;;;;;;4974101;28;20030;-78
2024/01/31 05:08:23;;;;;;;13.55;7.25;;;;;;;;;;4942980;29;20039;-77
2024/01/31 05:10:54;;;;;;;15.85;7.97;;;;;;;;;;4948789;28;20034;-77
2024/01/31 05:13:44;;;;;;;17.00;6.93;;;;;;;;;;4960842;28;20035;-79
2024/01/31 05:16:10;;;;;;;17.13;7.13;;;;;;;;;;4941788;28;20034;-78
2024/01/31 05:18:36;;;;;;;15.20;6.55;;;;;;;;;;4940846;29;20483;-78
2024/01/31 05:21:02;;;;;;;11.02;6.53;;;;;;;;;;4946550;28;20126;-78
2024/01/31 05:23:28;;;;;;;12.75;6.50;;;;;;;;;;4937188;28;20449;-78
2024/01/31 05:25:54;;;;;;;9.70;5.82;;;;;;;;;;4961242;28;20034;-79
2024/01/31 05:28:20;;;;;;;8.25;5.15;;;;;;;;;;4946101;28;20039;-79
2024/01/31 05:30:46;;;;;;;10.20;5.45;;;;;;;;;;4978875;28;20027;-79
2024/01/31 05:33:12;;;;;;;12.77;5.55;;;;;;;;;;4969556;28;20028;-79
2024/01/31 05:35:42;;;;;;;11.30;4.88;;;;;;;;;;4958754;28;20023;-80
2024/01/31 05:38:14;;;;;;;8.07;4.72;;;;;;;;;;4963765;28;20073;-78
2024/01/31 05:40:39;;;;;;;10.35;5.50;;;;;;;;;;4952510;28;20379;-79
2024/01/31 05:43:05;;;;;;;7.57;4.50;;;;;;;;;;4961728;28;20038;-79
2024/01/31 05:45:30;;;;;;;7.72;4.45;;;;;;;;;;4974703;28;20057;-79
2024/01/31 05:47:57;;;;;;;7.28;4.15;;;;;;;;;;4949200;28;20158;-78
2024/01/31 05:50:22;;;;;;;6.72;3.63;;;;;;;;;;4944809;29;20066;-78
2024/01/31 05:52:48;;;;;;;5.90;2.92;;;;;;;;;;4977320;28;20110;-79
2024/01/31 05:55:15;;;;;;;4.82;2.63;;;;;;;;;;4965986;28;20031;-78
2024/01/31 05:57:41;;;;;;;5.28;2.92;;;;;;;;;;4990016;28;20043;-79
2024/01/31 06:00:09;;;;;;;5.68;2.83;;;;;;;;;;4989440;28;20038;-79
2024/01/31 06:02:37;;;;;;;5.13;2.53;;;;;;;;;;4999722;28;20026;-78
2024/01/31 06:05:03;;;;;;;9.93;3.13;;;;;;;;;;4975489;28;20040;-79
2024/01/31 06:07:28;;;;;;;8.05;2.90;;;;;;;;;;4945760;29;20039;-78
2024/01/31 06:09:54;;;;;;;7.07;2.80;;;;;;;;;;4963980;28;20047;-79
2024/01/31 06:12:19;;;;;;;5.22;2.67;;;;;;;;;;4958535;29;20023;-79
2024/01/31 06:14:45;;;;;;;6.28;2.33;;;;;;;;;;4963651;29;20039;-78
2024/01/31 06:17:10;;;;;;;8.70;2.67;;;;;;;;;;4969094;28;20487;-78
2024/01/31 06:19:38;;;;;;;5.82;2.97;;;;;;;;;;4975421;28;20031;-79
2024/01/31 06:22:03;;;;;;;4.78;2.20;;;;;;;;;;4946557;28;20023;-78
2024/01/31 06:24:29;;;;;;;8.82;3.70;;;;;;;;;;4945597;29;20394;-79
2024/01/31 06:26:54;;;;;;;8.00;3.10;;;;;;;;;;4958994;28;20046;-79
2024/01/31 06:29:20;;;;;;;6.00;2.95;;;;;;;;;;4962629;28;20038;-78
2024/01/31 06:31:47;;;;;;;5.15;2.72;;;;;;;;;;4978414;28;20042;-80
2024/01/31 06:34:16;;;;;;;5.53;2.83;;;;;;;;;;4978538;28;20066;-78
2024/01/31 06:36:42;;;;;;;5.60;2.53;;;;;;;;;;4972672;28;20061;-79
2024/01/31 06:39:10;;;;;;;5.75;3.00;;;;;;;;;;4956547;28;20058;-80
2024/01/31 06:41:36;;;;;;;9.60;2.97;;;;;;;;;;4976954;28;20435;-78
2024/01/31 06:44:02;;;;;;;6.32;3.33;;;;;;;;;;4962032;28;20050;-80
2024/01/31 06:46:28;;;;;;;6.03;3.00;;;;;;;;;;4976461;28;20101;-78
2024/01/31 06:48:54;;;;;;;5.35;3.03;;;;;;;;;;4960730;28;20077;-78
2024/01/31 06:51:19;;;;;;;5.95;2.90;;;;;;;;;;4944074;28;20035;-80
2024/01/31 06:53:46;;;;;;;5.93;3.08;;;;;;;;;;4960317;28;20049;-79
2024/01/31 06:56:16;;;;;;;6.57;2.97;;;;;;;;;;4976136;28;20030;-79
2024/01/31 06:58:46;;;;;;;6.25;2.88;;;;;;;;;;4943634;28;20215;-78
2024/01/31 07:01:18;;;;;;;5.55;2.88;;;;;;;;;;4946033;28;20039;-79
2024/01/31 07:03:44;;;;;;;7.88;2.90;;;;;;;;;;4977111;28;20030;-79
2024/01/31 07:06:10;;;;;;;7.43;3.92;;;;;;;;;;4945184;28;20031;-78
2024/01/31 07:08:36;;;;;;;6.15;3.10;;;;;;;;;;4946734;29;20061;-80
2024/01/31 07:11:02;;;;;;;7.35;3.40;;;;;;;;;;4975634;28;20043;-78
2024/01/31 07:13:27;;;;;;;10.80;3.53;;;;;;;;;;4957575;28;20035;-78
2024/01/31 07:15:53;;;;;;;8.55;4.18;;;;;;;;;;4968608;28;20035;-78
2024/01/31 07:18:18;;;;;;;9.38;4.28;;;;;;;;;;4962317;28;20486;-79
2024/01/31 07:20:44;;;;;;;10.52;4.00;;;;;;;;;;4933268;29;20035;-78
2024/01/31 07:23:10;;;;;;;6.55;3.83;;;;;;;;;;4980829;28;20067;-78
2024/01/31 07:25:38;;;;;;;7.93;3.70;;;;;;;;;;4976849;28;20466;-79
2024/01/31 07:28:04;;;;;;;9.07;4.00;;;;;;;;;;4961089;28;20031;-78
2024/01/31 07:30:29;;;;;;;8.65;3.92;;;;;;;;;;4951280;28;20081;-80
2024/01/31 07:32:55;;;;;;;8.82;3.72;;;;;;;;;;4961315;28;20107;-79
2024/01/31 07:35:24;;;;;;;6.88;3.65;;;;;;;;;;4952914;28;20023;-79
2024/01/31 07:37:50;;;;;;;9.82;4.22;;;;;;;;;;4955227;28;20035;-79
2024/01/31 07:40:16;;;;;;;7.07;3.67;;;;;;;;;;4944060;28;20041;-79
2024/01/31 07:42:42;;;;;;;11.52;4.43;;;;;;;;;;4945265;28;20387;-79
2024/01/31 07:45:09;;;;;;;6.55;3.60;;;;;;;;;;4956290;28;20070;-78
2024/01/31 07:47:38;;;;;;;5.93;3.55;;;;;;;;;;4958680;28;20054;-79
2024/01/31 07:50:07;;;;;;;7.20;4.20;;;;;;;;;;4964397;28;20058;-79
2024/01/31 07:52:33;;;;;;;7.25;4.10;;;;;;;;;;4945527;28;20129;-79
2024/01/31 07:54:58;;;;;;;8.85;4.22;;;;;;;;;;4960465;28;20089;-78
2024/01/31 07:57:24;;;;;;;8.18;3.90;;;;;;;;;;4953235;29;20039;-78
2024/01/31 07:59:49;;;;;;;9.25;3.80;;;;;;;;;;4966808;28;20046;-79
2024/01/31 08:02:15;;;;;;;10.55;3.97;;;;;;;;;;4987792;28;20109;-78
2024/01/31 08:04:41;;;;;;;9.85;3.92;;;;;;;;;;4985676;28;20030;-79
2024/01/31 08:07:06;;;;;;;9.30;4.10;;;;;;;;;;4967712;28;20026;-78
2024/01/31 08:09:32;;;;;;;9.32;4.03;;;;;;;;;;4954674;29;20047;-80
2024/01/31 08:11:57;;;;;;;6.97;3.78;;;;;;;;;;4976771;28;20022;-80
2024/01/31 08:14:23;;;;;;;10.35;4.47;;;;;;;;;;4960542;28;20031;-79
2024/01/31 08:16:51;;;;;;;14.68;4.15;;;;;;;;;;4960437;28;20042;-79
2024/01/31 08:19:17;;;;;;;6.97;4.00;;;;;;;;;;4978043;28;20035;-79
2024/01/31 08:21:42;;;;;;;9.25;4.13;;;;;;;;;;4954389;28;20027;-80
2024/01/31 08:24:08;;;;;;;6.45;4.03;;;;;;;;;;4974068;28;20026;-80
2024/01/31 08:26:33;;;;;;;7.70;4.28;;;;;;;;;;4973170;28;20027;-79
2024/01/31 08:28:59;;;;;;;9.77;4.40;;;;;;;;;;4964455;28;20030;-79
2024/01/31 08:31:24;;;;;;;7.80;3.92;;;;;;;;;;4990899;28;20041;-79
2024/01/31 08:33:50;;;;;;;8.75;4.15;;;;;;;;;;4977674;28;20026;-80
2024/01/31 08:36:16;;;;;;;8.82;4.10;;;;;;;;;;4959988;28;20046;-79
2024/01/31 08:38:43;;;;;;;7.32;3.92;;;;;;;;;;4943875;28;20038;-78
2024/01/31 08:41:10;;;;;;;8.05;4.05;;;;;;;;;;4956361;28;20125;-80
2024/01/31 08:43:36;;;;;;;7.57;4.13;;;;;;;;;;4959281;28;20053;-81
2024/01/31 08:46:02;;;;;;;15.40;3.85;;;;;;;;;;4977762;28;20026;-80
2024/01/31 08:48:27;;;;;;;6.40;3.15;;;;;;;;;;4960787;28;20046;-78
2024/01/31 08:50:53;;;;;;;7.75;3.05;;;;;;;;;;4929678;28;20058;-79
2024/01/31 08:53:18;;;;;;;8.57;2.70;;;;;;;;;;4970950;28;20058;-81
2024/01/31 08:55:44;;;;;;;5.25;2.80;;;;;;;;;;4956405;28;20022;-79
2024/01/31 08:58:09;;;;;;;5.35;2.20;;;;;;;;;;4981063;28;20035;-79
2024/01/31 09:00:35;;;;;;;5.50;2.25;;;;;;;;;;4962663;28;20023;-80
2024/01/31 09:03:03;;;;;;;6.30;2.30;;;;;;;;;;4977934;28;20030;-80
2024/01/31 09:05:29;;;;;;;4.45;1.80;;;;;;;;;;4967813;28;20062;-79
2024/01/31 09:07:55;;;;;;;3.08;1.45;;;;;;;;;;4953294;28;20437;-80
2024/01/31 09:10:21;;;;;;;5.35;1.95;;;;;;;;;;4978982;28;20058;-79
2024/01/31 09:12:48;;;;;;;4.70;1.80;;;;;;;;;;4963387;28;20034;-80
2024/01/31 09:15:14;;;;;;;5.18;2.30;;;;;;;;;;4961918;28;20049;-81
2024/01/31 09:17:40;;;;;;;4.22;1.70;;;;;;;;;;4939472;29;20042;-78
2024/01/31 09:20:06;;;;;;;5.82;2.28;;;;;;;;;;4942954;28;20027;-78
2024/01/31 09:22:32;;;;;;;5.88;2.13;;;;;;;;;;4946875;28;20050;-79
2024/01/31 09:24:57;;;;;;;4.80;2.20;;;;;;;;;;4965002;28;20498;-86
2024/01/31 09:27:23;;;;;;;7.03;2.88;;;;;;;;;;4964535;28;20061;-86
2024/01/31 09:29:49;;;;;;;6.72;2.88;;;;;;;;;;4967500;28;20027;-85
2024/01/31 09:32:15;;;;;;;4.20;2.33;;;;;;;;;;4942010;29;20031;-86
2024/01/31 09:34:44;;;;;;;4.70;2.20;;;;;;;;;;4967676;28;20035;-84
2024/01/31 09:37:10;;;;;;;3.92;2.00;;;;;;;;;;4954490;28;20098;-86
2024/01/31 09:39:37;;;;;;;6.78;2.28;;;;;;;;;;4936499;29;20051;-86
2024/01/31 09:42:04;;;;;;;5.10;2.05;;;;;;;;;;4984579;28;20046;-85
2024/01/31 09:44:30;;;;;;;6.55;2.67;;;;;;;;;;4971327;28;20027;-85
2024/01/31 09:46:56;;;;;;;13.32;3.05;;;;;;;;;;4951994;28;20117;-80
2024/01/31 09:49:21;;;;;;;5.57;2.38;;;;;;;;;;4941732;28;20494;-79
2024/01/31 09:51:47;;;;;;;3.92;2.20;;;;;;;;;;4976919;28;20047;-80
2024/01/31 09:54:13;;;;;;;6.97;2.88;;;;;;;;;;4944367;28;20026;-78
2024/01/31 09:56:40;;;;;;;5.05;2.17;;;;;;;;;;4956739;28;20038;-80
2024/01/31 09:59:05;;;;;;;5.32;2.90;;;;;;;;;;4969527;28;20038;-80
2024/01/31 10:01:31;;;;;;;5.63;2.95;;;;;;;;;;4958048;28;20231;-80
2024/01/31 10:03:57;;;;;;;5.15;2.65;;;;;;;;;;4945013;28;20031;-79
2024/01/31 10:06:24;;;;;;;5.88;2.88;;;;;;;;;;4977061;28;20460;-80
2024/01/31 10:08:50;;;;;;;4.32;2.22;;;;;;;;;;4960447;28;20125;-80
2024/01/31 10:11:15;;;;;;;7.78;3.38;;;;;;;;;;4949261;28;20087;-80
2024/01/31 10:13:41;;;;;;;5.03;2.30;;;;;;;;;;4945010;28;20030;-80
2024/01/31 10:16:06;;;;;;;11.10;2.80;;;;;;;;;;4971602;28;20050;-80
2024/01/31 10:18:32;;;;;;;5.00;2.33;;;;;;;;;;4967536;28;20127;-79
2024/01/31 10:20:57;;;;;;;6.15;2.47;;;;;;;;;;4955471;28;20089;-80
2024/01/31 10:23:26;;;;;;;6.05;2.65;;;;;;;;;;4962647;28;20431;-80
2024/01/31 10:25:51;;;;;;;9.07;2.40;;;;;;;;;;4935182;28;20059;-79
2024/01/31 10:28:19;;;;;;;7.18;2.50;;;;;;;;;;4941177;28;20499;-80
2024/01/31 10:30:49;;;;;;;10.40;2.72;;;;;;;;;;4959976;28;20787;-79
2024/01/31 10:33:15;;;;;;;4.57;1.85;;;;;;;;;;4976858;28;20022;-80
2024/01/31 10:35:41;;;;;;;14.85;2.40;;;;;;;;;;4960191;28;20037;-79
2024/01/31 10:38:07;;;;;;;3.97;2.13;;;;;;;;;;4975792;28;20094;-80
2024/01/31 10:40:33;;;;;;;10.50;4.63;;;;;;;;;;4970220;28;20096;-79
2024/01/31 10:43:00;;;;;;;6.47;3.80;;;;;;;;;;4946442;28;20047;-80
2024/01/31 10:45:26;;;;;;;8.23;2.50;;;;;;;;;;4945916;28;20058;-79
2024/01/31 10:47:52;;;;;;;4.93;1.98;;;;;;;;;;4939179;28;20031;-80
2024/01/31 10:50:18;;;;;;;6.57;2.40;;;;;;;;;;4961256;28;20038;-79
2024/01/31 10:52:45;;;;;;;4.68;2.08;;;;;;;;;;4964034;28;20031;-79
2024/01/31 10:55:11;;;;;;;7.43;2.20;;;;;;;;;;4961064;28;20141;-80
2024/01/31 10:57:39;;;;;;;4.57;2.10;;;;;;;;;;4981469;28;20117;-80
2024/01/31 11:00:21;;;;;;;4.80;2.13;;;;;;;;;;4958041;28;20038;-79
2024/01/31 11:02:47;;;;;;;5.53;2.00;;;;;;;;;;4974760;28;20042;-79
2024/01/31 11:05:13;;;;;;;3.80;1.85;;;;;;;;;;4958840;28;20422;-81
2024/01/31 11:07:45;;;;;;;5.68;2.20;;;;;;;;;;4972268;28;20038;-80
2024/01/31 11:10:20;;;;;;;4.60;2.20;;;;;;;;;;4933613;29;20027;-81
2024/01/31 11:13:04;;;;;;;5.40;2.60;;;;;;;;;;4966521;28;20505;-78
2024/01/31 11:15:31;;;;;;;5.18;1.80;;;;;;;;;;4977054;28;20039;-78
2024/01/31 11:18:14;;;;;;;5.38;2.00;;;;;;;;;;4960421;28;20685;-78
2024/01/31 11:20:49;;;;;;;3.13;1.73;;;;;;;;;;4976473;28;20465;-78
2024/01/31 11:23:16;;;;;;;4.85;1.90;;;;;;;;;;4975844;28;20026;-80
2024/01/31 11:25:48;;;;;;;7.20;2.30;;;;;;;;;;4976270;28;20042;-79
2024/01/31 11:28:26;;;;;;;3.00;1.73;;;;;;;;;;4972091;28;20094;-80
2024/01/31 11:30:52;;;;;;;6.22;2.47;;;;;;;;;;4958381;28;20031;-80
2024/01/31 11:33:18;;;;;;;4.90;2.33;;;;;;;;;;4966001;28;20035;-80
2024/01/31 11:35:45;;;;;;;4.55;1.88;;;;;;;;;;4963575;28;20033;-79
2024/01/31 11:38:11;;;;;;;5.93;2.53;;;;;;;;;;4931143;28;20113;-80
2024/01/31 11:40:37;;;;;;;7.45;1.60;;;;;;;;;;4966203;28;20035;-80
2024/01/31 11:43:04;;;;;;;5.43;1.73;;;;;;;;;;4950953;28;20490;-80
2024/01/31 11:45:30;;;;;;;3.38;1.50;;;;;;;;;;4988451;28;20029;-79
2024/01/31 11:47:56;;;;;;;2.15;1.10;;;;;;;;;;4981630;28;20033;-80
2024/01/31 11:50:22;;;;;;;3.13;1.20;;;;;;;;;;4966293;28;20023;-80
2024/01/31 11:52:48;;;;;;;5.70;1.27;;;;;;;;;;4961971;28;20049;-79
2024/01/31 11:55:19;;;;;;;1.77;0.95;;;;;;;;;;4979656;28;20038;-80
2024/01/31 11:57:45;;;;;;;5.00;1.10;;;;;;;;;;4962173;28;20038;-80
2024/01/31 12:00:11;;;;;;;1.95;0.80;;;;;;;;;;4942109;29;20470;-79
2024/01/31 12:02:40;;;;;;;2.85;0.93;;;;;;;;;;4966647;28;20130;-79
2024/01/31 12:05:06;;;;;;;4.57;0.85;;;;;;;;;;4943828;28;20058;-80
2024/01/31 12:07:32;;;;;;;2.20;0.65;;;;;;;;;;4951664;29;20445;-80
2024/01/31 12:09:58;;;;;;;5.93;0.88;;;;;;;;;;4956415;28;20060;-79
2024/01/31 12:12:24;;;;;;;3.13;0.70;;;;;;;;;;4959813;28;20398;-80
2024/01/31 12:14:49;;;;;;;3.33;0.80;;;;;;;;;;4959248;28;20031;-80
2024/01/31 12:17:21;;;;;;;5.68;1.10;;;;;;;;;;4959743;28;20098;-80
2024/01/31 12:19:47;;;;;;;2.67;0.70;;;;;;;;;;4971324;28;20110;-80
2024/01/31 12:22:13;;;;;;;3.78;0.80;;;;;;;;;;4975230;28;20078;-79
2024/01/31 12:24:39;;;;;;;6.75;0.90;;;;;;;;;;4974027;28;20121;-79
2024/01/31 12:27:04;;;;;;;2.28;0.90;;;;;;;;;;4974229;28;20434;-80
2024/01/31 12:30:01;;;;;;;3.40;0.90;;;;;;;;;;4958902;28;20107;-80
2024/01/31 12:36:04;;;;;;;1.95;0.98;;;;;;;;;;5331596;23;20505;-80
2024/01/31 12:38:30;;;;;;;1.95;0.82;;;;;;;;;;4996623;28;20022;-78
2024/01/31 12:40:56;;;;;;;2.67;0.93;;;;;;;;;;4976365;28;20077;-80
2024/01/31 12:43:24;;;;;;;2.03;0.68;;;;;;;;;;4996937;28;20489;-78
2024/01/31 12:45:49;;;;;;;1.50;0.77;;;;;;;;;;4984708;28;20019;-80
2024/01/31 12:48:15;;;;;;;1.50;0.82;;;;;;;;;;4992124;28;20284;-79
2024/01/31 12:50:41;;;;;;;1.73;0.65;;;;;;;;;;4939080;28;20027;-81
2024/01/31 12:53:07;;;;;;;2.97;0.95;;;;;;;;;;4963413;28;20035;-82
2024/01/31 12:55:33;;;;;;;3.92;0.73;;;;;;;;;;4957898;28;20033;-79
2024/01/31 12:57:59;;;;;;;2.83;0.80;;;;;;;;;;4986958;28;20110;-80
2024/01/31 13:00:24;;;;;;;1.52;0.90;;;;;;;;;;4985234;28;20058;-81
2024/01/31 13:02:55;;;;;;;5.27;0.83;;;;;;;;;;4986103;28;20110;-81
2024/01/31 13:05:21;;;;;;;;;;;;;;;;;;4963748;28;20074;-80
2024/01/31 13:07:51;;;;;;;2.60;1.20;;;;;;;;;;4965683;28;19921;-79
2024/01/31 13:10:18;;;;;;;8.38;1.20;;;;;;;;;;4978487;28;20402;-80
2024/01/31 13:12:43;;;;;;;4.30;1.00;;;;;;;;;;4968765;28;20038;-80
2024/01/31 13:15:09;;;;;;;3.67;1.30;;;;;;;;;;4974297;28;20022;-80
2024/01/31 13:17:35;;;;;;;4.32;0.80;;;;;;;;;;4964498;28;20045;-79
2024/01/31 13:20:02;;;;;;;2.03;0.90;;;;;;;;;;4978842;28;20046;-80
2024/01/31 13:22:29;;;;;;;2.70;1.00;;;;;;;;;;4959331;28;20102;-81
2024/01/31 13:24:57;;;;;;;2.13;0.80;;;;;;;;;;4974687;28;20050;-79
2024/01/31 13:27:24;;;;;;;3.35;1.05;;;;;;;;;;4978397;28;20051;-80
2024/01/31 13:29:49;;;;;;;3.60;1.40;;;;;;;;;;4964052;28;20027;-81
2024/01/31 13:32:15;;;;;;;2.30;1.02;;;;;;;;;;4978752;28;20034;-79
2024/01/31 13:34:44;;;;;;;2.88;0.95;;;;;;;;;;4953374;28;20038;-80
2024/01/31 13:37:11;;;;;;;6.30;1.30;;;;;;;;;;4977430;28;20113;-79
2024/01/31 13:39:36;;;;;;;2.75;1.40;;;;;;;;;;4963825;28;20073;-80
2024/01/31 13:42:04;;;;;;;3.22;1.10;;;;;;;;;;4963533;28;20566;-80
2024/01/31 13:44:36;;;;;;;2.97;0.90;;;;;;;;;;4955163;28;20047;-81
2024/01/31 13:47:05;;;;;;;3.80;1.40;;;;;;;;;;4958499;28;20050;-80
2024/01/31 13:49:34;;;;;;;2.97;1.10;;;;;;;;;;4977409;28;20042;-80
2024/01/31 13:52:07;;;;;;;2.65;1.13;;;;;;;;;;4975881;28;20054;-80
2024/01/31 13:54:37;;;;;;;1.50;0.85;;;;;;;;;;4961956;28;20132;-80
2024/01/31 13:57:08;;;;;;;2.80;1.10;;;;;;;;;;4980600;28;20038;-81
2024/01/31 13:59:34;;;;;;;4.70;1.10;;;;;;;;;;4982547;28;20027;-80
2024/01/31 14:02:02;;;;;;;3.08;1.23;;;;;;;;;;4971171;28;20035;-81
2024/01/31 14:04:29;;;;;;;4.70;1.27;;;;;;;;;;4970021;28;20505;-81
2024/01/31 14:06:55;;;;;;;3.90;1.13;;;;;;;;;;4962225;28;20038;-80
2024/01/31 14:09:21;;;;;;;2.33;0.90;;;;;;;;;;4959918;28;20038;-81
2024/01/31 14:11:47;;;;;;;6.38;1.20;;;;;;;;;;4950446;28;20093;-81
2024/01/31 14:14:12;;;;;;;2.42;1.00;;;;;;;;;;4963162;28;20038;-80
2024/01/31 14:16:38;;;;;;;3.92;1.17;;;;;;;;;;4959510;28;20035;-79
2024/01/31 14:19:04;;;;;;;7.60;1.35;;;;;;;;;;4951434;28;20039;-81
2024/01/31 14:21:29;;;;;;;3.40;1.00;;;;;;;;;;4945035;29;20027;-80
2024/01/31 14:23:58;;;;;;;2.58;1.25;;;;;;;;;;4962670;28;20027;-80
2024/01/31 14:26:24;;;;;;;;;;;;;;;;;;4971793;28;20134;-80
2024/01/31 14:28:55;;;;;;;3.90;1.50;;;;;;;;;;4980399;28;19941;-80
2024/01/31 14:31:20;;;;;;;4.15;1.67;;;;;;;;;;4962004;28;20035;-80
2024/01/31 14:36:41;;;;;;;5.75;1.67;;;;;;;;;;4958442;29;20062;-80
2024/01/31 14:39:14;;;;;;;5.43;1.80;;;;;;;;;;4960487;28;20051;-80
2024/01/31 14:41:40;;;;;;;6.82;1.45;;;;;;;;;;4944920;28;20023;-81
2024/01/31 14:44:06;;;;;;;5.07;1.42;;;;;;;;;;4921843;29;20096;-81